Allensville, Ohio
Current Conditions -  °F | °C
As of 4:35 PM on Thursday 23 Oct 2014 (Local Time) from KUNI Reporting Station
Clear Clear  
Wind Chill: 60°   Ceiling: Unl
Heat Index: 60°   Visibility: 10mi
Dew Point: 40°   Wind: 5mph
Humidity: 47%   Direction: 340°NNW
Pressure: 30.12"   Gusts: NA
Location:  39.2719°N, 82.4596°W
Report Text: KUNI 232035Z AUTO 34004KT 10SM CLR 16/05 A3012 RMK AO2 T01580045
Loading
Personal Weather Stations






























Interactive Weather Map New forecast layout! Learn more

10-Day Weather Forecast

Advertisements
Track Severe Weather on mobile